Tiempo atmosférico en la estación meteorológica de Pozuelo De Tabara, Zamora (711 m.)



Fecha
DESCASC
Temp. máxima en grados centígrados (hora)
DESCASC
Temp. mínima en grados centígrados (hora)
DESCASC
Temp. media en grados centígrados
DESCASC
Racha de viento máxima en m/sg (hora)
DESCASC
Velocidad máxima media en intervalos de 10 minutos(hora)
DESCASC
Precipitaciones diarias en mm
DESCASC
Precipitaciones de 00:00 a 06:00 en mm
DESCASC
Precipitaciones de 06:00 a 12:00 en mm
DESCASC
Precipitaciones de 12:00 a 18:00 en mm
DESCASC
Precipitaciones de 18:00 a 24:00 en mm
DESCASC
19-01-2020 8.7 (15:00) -0.7 (23:00) 4 19.44 (12:30) 12.78 (13:10) 0 0 0 0 0
18-01-2020 10.9 (16:20) 3.6 (01:40) 7.2 18.06 (15:20) 13.06 (17:40) 1.4 0 1.4 0 0
17-01-2020 8.9 (14:40) 3.9 (23:50) 6.4 12.22 (03:00) 8.33 (03:30) 0.2 0 0.2 0 0
16-01-2020 11.9 (12:10) 7.4 (00:00) 9.6 17.22 (13:20) 11.39 (14:00) 1.4 0.2 0 0 1.2
15-01-2020 11.9 (16:20) 6.5 (00:00) 9.2 15.28 (07:50) 10 (09:10) 2.2 0 2.2 0 0
14-01-2020 9.4 (14:50) 2.9 (00:00) 6.1 11.11 (16:20) 8.33 (17:00) 0.2 0 0 0 0.2
13-01-2020 6.8 (16:30) -3.9 (-00:0) 1.5 10.28 (16:30) 6.67 (16:50) 0.2 0 0 0.2 0
12-01-2020 -0.8 (16:10) -3.9 (07:00) -2.4 1.39 (00:10) 0.83 (00:10) 0 0 0 0 0
11-01-2020 8 (14:20) -2.5 (-00:0) 2.8 3.89 (05:00) 3.33 (05:30) 0.2 0 0.2 0 0
10-01-2020 9.6 (15:00) -1.2 (-00:0) 4.2 6.39 (16:00) 4.44 (11:40) 0 0 0 0 0
09-01-2020 10.1 (14:00) -1.9 (-00:0) 4.1 11.94 (13:30) 8.06 (13:30) 0 0 0 0 0
08-01-2020 8.4 (16:20) -3.1 (-00:0) 2.6 2.78 (16:50) 2.22 (17:00) 0.2 0 0.2 0 0
07-01-2020 1 (16:00) -2.4 (-00:0) -0.7 2.5 (19:00) 1.94 (19:00) 0 0 0 0 0
06-01-2020 0.6 (17:30) -2.4 (-00:0) -0.9 3.06 (21:10) 1.94 (01:10) 0 0 0 0 0
05-01-2020 5.3 (15:20) -1.3 (-00:0) 2 4.72 (02:10) 3.33 (02:10) 0.2 0 0.2 0 0
04-01-2020 5.2 (16:20) 0.5 (00:00) 2.8 5 (15:10) 3.33 (15:10) 0 0 0 0 0
03-01-2020 2.8 (16:40) -1.3 (-00:0) 0.8 3.61 (23:00) 2.22 (23:00) 0.2 0 0.2 0 0
02-01-2020 1.4 (17:50) -3.8 (-00:0) -1.2 1.94 (00:20) 1.39 (00:20) 0.2 0 0 0.2 0
01-01-2020 1.6 (16:00) -4.9 (-00:0) -1.7 2.78 (16:40) 1.67 (16:40) 0.2 0 0 0.2 0
31-12-2019 7.2 (15:20) -3.9 (-00:0) 1.6 3.33 (16:50) 2.5 (16:50) 0.2 0 0 0.2 0
30-12-2019 -- (--) -- (--) -- -- (--) -- (--) -- 0 0.2 -- 0
29-12-2019 11.2 (16:50) -2.8 (-00:0) 4.2 3.06 (15:30) 2.22 (23:59) 0 0 0 0 0
28-12-2019 9.9 (14:50) -2.7 (-00:0) 3.6 3.61 (16:00) 2.5 (16:00) 0 0 0 0 0
27-12-2019 5 (16:20) -0.8 (-00:0) 2.1 5 (12:20) 3.33 (01:50) 0 0 0 0 0
26-12-2019 8.7 (14:20) 3.1 (00:00) 5.9 6.67 (03:30) 4.72 (03:20) 0 0 0 0 0
25-12-2019 10.1 (15:10) 6.4 (00:00) 8.3 4.17 (04:40) 3.06 (04:40) 0 0 0 0 0
24-12-2019 14 (13:00) 8.9 (00:00) 11.4 7.5 (10:10) 5.56 (10:10) 0 0 0 0 0
23-12-2019 11.7 (16:20) 3.7 (00:00) 7.7 9.17 (06:50) 6.94 (06:50) 0 0 0 0 0
22-12-2019 12.3 (13:00) 5.6 (23:59) 9 22.5 (01:40) 16.39 (15:50) 2 0 1.4 0.6 0

Gráficas

Temp. máximas Temp. mínimas Temp. medias Precipitaciones Rachas de viento máximas Velocidades máximas media en intervalos de 10 minutos

Datos horarios

Fecha y hora oficial Temperatura (ºC) Velocidad del viento (km/h) Dirección del viento Racha (km/h) Dirección de racha Precipitación (mm) Presión (hPa) Tendencia (hPa) Humedad (%)
2020-01-20 23:00:00 0.9 28 Nordeste 49 Nordeste 0 -- -- 77
2020-01-20 22:00:00 1.3 24 Nordeste 44 Nordeste 0 -- -- 71
2020-01-20 21:00:00 2 26 Nordeste 44 Nordeste 0 -- -- 67
2020-01-20 20:00:00 2.7 28 Este 39 Este 0 -- -- 62
2020-01-20 19:00:00 2.6 17 Nordeste 32 Este 0 -- -- 59
2020-01-20 18:00:00 2.8 22 Nordeste 42 Nordeste 0 -- -- 59
2020-01-20 17:00:00 3 26 Nordeste 52 Nordeste 0 -- -- 62
2020-01-20 16:00:00 3 33 Nordeste 51 Este 0 -- -- 58
2020-01-20 15:00:00 3.3 29 Este 55 Nordeste 0 -- -- 54
2020-01-20 14:00:00 4.4 37 Este 57 Este 0 -- -- 48
2020-01-20 13:00:00 4.6 39 Nordeste 60 Nordeste 0 -- -- 44
2020-01-20 12:00:00 3.9 36 Nordeste 65 Nordeste 0 -- -- 46
2020-01-20 11:00:00 2.9 31 Nordeste 51 Este 0 -- -- 54
2020-01-20 10:00:00 1.3 17 Nordeste 35 Nordeste 0 -- -- 63
2020-01-20 09:00:00 -0.2 17 Nordeste 30 Nordeste 0 -- -- 70
2020-01-20 08:00:00 -0.3 18 Nordeste 27 Nordeste 0 -- -- 70
2020-01-20 07:00:00 -1 8 Este 28 Nordeste 0 -- -- 75
2020-01-20 06:00:00 -1.6 10 Sudeste 16 Sudeste 0 -- -- 79
2020-01-20 05:00:00 -1.2 2 Nordeste 14 Sudeste 0 -- -- 75
2020-01-20 04:00:00 -0.6 12 Sudeste 21 Sudeste 0 -- -- 74
2020-01-20 03:00:00 0.4 13 Este 28 Nordeste 0 -- -- 69
2020-01-20 02:00:00 -0.1 14 Nordeste 26 Nordeste 0 -- -- 74
2020-01-20 01:00:00 -0.7 9 Sudeste 22 Nordeste 0 -- -- 75
2020-01-20 00:00:00 0.8 12 Este 27 Nordeste 0 -- -- 69
2020-01-19 23:00:00 -0.7 2 Norte 21 Nordeste 0 -- -- 73
2020-01-19 22:00:00 0.5 13 Nordeste 23 Nordeste 0 -- -- 64
2020-01-19 21:00:00 1.9 18 Nordeste 43 Nordeste 0 -- -- 55
2020-01-19 20:00:00 3.2 27 Nordeste 40 Nordeste 0 -- -- 48
2020-01-19 19:00:00 3.8 24 Nordeste 45 Nordeste 0 -- -- 49
2020-01-19 18:00:00 5.4 31 Nordeste 62 Nordeste 0 -- -- 48
2020-01-19 17:00:00 7.1 31 Nordeste 61 Nordeste 0 -- -- 48
2020-01-19 16:00:00 8.1 33 Nordeste 61 Nordeste 0 -- -- 46
2020-01-19 15:00:00 8.7 37 Nordeste 62 Nordeste 0 -- -- 45
2020-01-19 14:00:00 8.4 45 Nordeste 69 Nordeste 0 -- -- 50
2020-01-19 13:00:00 8.2 41 Nordeste 70 Nordeste 0 -- -- 50
2020-01-19 12:00:00 7.4 43 Nordeste 60 Nordeste 0 -- -- 53
2020-01-19 11:00:00 6.7 26 Nordeste 42 Nordeste 0 -- -- 67
2020-01-19 10:00:00 5.3 16 Norte 26 Norte 0 -- -- 72
2020-01-19 09:00:00 3.6 7 Nordeste 19 Norte 0 -- -- 83
2020-01-19 08:00:00 2.4 3 Nordeste 15 Noroeste 0 -- -- 92
2020-01-19 07:00:00 1.1 4 Noroeste 14 Norte 0 -- -- 91
2020-01-19 06:00:00 2.6 10 Noroeste 16 Noroeste 0 -- -- 90
2020-01-19 05:00:00 2.7 11 Noroeste 20 Norte 0 -- -- 88
2020-01-19 04:00:00 2.3 13 Noroeste 21 Noroeste 0 -- -- 90
2020-01-19 03:00:00 1.5 12 Noroeste 15 Noroeste 0 -- -- 94
2020-01-19 02:00:00 2.2 10 Noroeste 14 Noroeste 0 -- -- 93
2020-01-19 01:00:00 3.4 12 Noroeste 22 Oeste 0 -- -- 92
2020-01-19 00:00:00 4.9 17 Oeste 25 Oeste 0 -- -- 89
2020-01-18 23:00:00 5 19 Oeste 34 Oeste 0 -- -- 86
2020-01-18 22:00:00 5.1 22 Oeste 40 Oeste 0 -- -- 84
2020-01-18 21:00:00 4.9 14 Noroeste 37 Oeste 0 -- -- 81
2020-01-18 20:00:00 6.1 21 Noroeste 49 Oeste 0 -- -- 74
2020-01-18 19:00:00 7.7 25 Oeste 46 Oeste 0 -- -- 77
2020-01-18 18:00:00 9.3 30 Oeste 62 Oeste 0 -- -- 81
2020-01-18 17:00:00 10.9 41 Oeste 61 Sudoeste 0 -- -- 79
2020-01-18 16:00:00 10.8 42 Sudoeste 65 Sudoeste 0 -- -- 88
2020-01-18 15:00:00 9.7 44 Sudoeste 63 Sudoeste 0 -- -- 93
2020-01-18 14:00:00 9.3 43 Sudoeste 61 Sudoeste 0 -- -- 94
2020-01-18 13:00:00 8.5 28 Sudoeste 40 Sudoeste 0 -- -- 95
2020-01-18 12:00:00 7.2 17 Sur 26 Sudoeste 0.2 -- -- 97
2020-01-18 11:00:00 5.7 5 Sudeste 7 Este 0.4 -- -- 97
2020-01-18 10:00:00 5.2 8 Sudeste 11 Este 0.2 -- -- 97
2020-01-18 09:00:00 4.4 3 Nordeste 5 Este 0 -- -- 96
2020-01-18 08:00:00 4.3 2 Este 4 Este 0.6 -- -- 95
2020-01-18 07:00:00 4.3 3 Nordeste 9 Sur 0 -- -- 93
2020-01-18 06:00:00 3.9 6 Sur 10 Sur 0 -- -- 94
2020-01-18 05:00:00 3.6 2 Este 13 Norte 0 -- -- 94
2020-01-18 04:00:00 3.8 5 Nordeste 10 Nordeste 0 -- -- 95
2020-01-18 03:00:00 3.7 0 Calma 3 Noroeste 0 -- -- 94
2020-01-18 02:00:00 3.7 0 Calma 5 Nordeste 0 -- -- 94
2020-01-18 01:00:00 3.8 3 Norte 12 Este 0 -- -- 92
2020-01-18 00:00:00 3.9 6 Sudoeste 10 Oeste 0 -- -- 90
2020-01-17 23:00:00 4.3 2 Sudoeste 9 Este 0 -- -- 87
2020-01-17 22:00:00 4.9 4 Sudoeste 10 Sudoeste 0 -- -- 84
2020-01-17 21:00:00 5.2 2 Noroeste 8 Norte 0 -- -- 81
2020-01-17 20:00:00 5.6 3 Oeste 10 Noroeste 0 -- -- 78
2020-01-17 19:00:00 5.8 4 Oeste 13 Oeste 0 -- -- 75
2020-01-17 18:00:00 7 9 Oeste 26 Oeste 0 -- -- 70
2020-01-17 17:00:00 7.9 19 Oeste 28 Oeste 0 -- -- 62
2020-01-17 16:00:00 8.4 19 Oeste 31 Oeste 0 -- -- 60
2020-01-17 15:00:00 8.8 24 Oeste 37 Oeste 0 -- -- 61
2020-01-17 14:00:00 8.4 22 Oeste 33 Oeste 0 -- -- 66
2020-01-17 13:00:00 7.9 17 Oeste 32 Oeste 0 -- -- 73
2020-01-17 12:00:00 7.6 15 Oeste 34 Oeste 0 -- -- 72
2020-01-17 11:00:00 7.3 22 Oeste 32 Oeste 0.2 -- -- 77
2020-01-17 10:00:00 5.9 15 Oeste 26 Oeste 0 -- -- 83
2020-01-17 09:00:00 4.9 5 Noroeste 15 Oeste 0 -- -- 91
2020-01-17 08:00:00 5.3 8 Oeste 27 Oeste 0 -- -- 88
2020-01-17 07:00:00 6.5 14 Oeste 35 Oeste 0 -- -- 90
2020-01-17 06:00:00 6.3 21 Sudoeste 34 Oeste 0 -- -- 91
2020-01-17 05:00:00 7 19 Oeste 33 Sudoeste 0 -- -- 90
2020-01-17 04:00:00 7 23 Sudoeste 43 Sudoeste 0 -- -- 92
2020-01-17 03:00:00 7.2 27 Sudoeste 44 Sudoeste 0 -- -- 91
2020-01-17 02:00:00 6.7 23 Sudoeste 35 Sudoeste 0 -- -- 92
2020-01-17 01:00:00 6.8 17 Sudoeste 35 Sudoeste 0 -- -- 90
2020-01-17 00:00:00 7.4 19 Sudoeste 35 Sudoeste 0 -- -- 91
2020-01-16 23:00:00 7.6 21 Sudoeste 42 Sudoeste 0 -- -- 89
2020-01-16 22:00:00 8.2 25 Sudoeste 56 Sudoeste 0.4 -- -- 90
2020-01-16 21:00:00 8.5 33 Sudoeste 58 Sudoeste 0.4 -- -- 87
2020-01-16 20:00:00 8.7 28 Sudoeste 53 Sudoeste 0.2 -- -- 81
2020-01-16 19:00:00 9.1 31 Sur 44 Sur 0.2 -- -- 75
2020-01-16 18:00:00 9.9 25 Sudoeste 51 Sudoeste 0 -- -- 69
2020-01-16 17:00:00 10.5 31 Sudoeste 51 Sudoeste 0 -- -- 67
2020-01-16 16:00:00 11.1 31 Sudoeste 49 Sur 0 -- -- 66
2020-01-16 15:00:00 11.4 30 Sudoeste 56 Sudoeste 0 -- -- 65
2020-01-16 14:00:00 11.7 41 Sudoeste 62 Sudoeste 0 -- -- 64
2020-01-16 13:00:00 11.3 38 Sudoeste 57 Sudoeste 0 -- -- 68
2020-01-16 12:00:00 11.7 34 Sudoeste 52 Sudoeste 0 -- -- 69
2020-01-16 11:00:00 10.9 33 Sur 54 Sur 0 -- -- 76
2020-01-16 10:00:00 9.8 28 Sur 41 Sur 0 -- -- 85
2020-01-16 09:00:00 9.5 22 Sur 36 Sudoeste 0 -- -- 87
2020-01-16 08:00:00 9.6 20 Sudoeste 29 Sudoeste 0 -- -- 88
2020-01-16 07:00:00 9.5 19 Sudoeste 41 Sudoeste 0 -- -- 88
2020-01-16 06:00:00 9.4 27 Sudoeste 40 Sudoeste 0 -- -- 89
2020-01-16 05:00:00 9.1 24 Sudoeste 38 Sudoeste 0 -- -- 89
2020-01-16 04:00:00 9.1 26 Sudoeste 39 Sudoeste 0 -- -- 89
2020-01-16 03:00:00 9.1 22 Sudoeste 31 Sudoeste 0.2 -- -- 90
2020-01-16 02:00:00 9.1 14 Sudoeste 30 Sudoeste 0 -- -- 89
2020-01-16 01:00:00 9.3 19 Sudoeste 28 Sudoeste 0 -- -- 89
2020-01-16 00:00:00 9 13 Sur 25 Sur 0 -- -- 91
2020-01-15 23:00:00 8.9 13 Sur 22 Sur 0 -- -- 93
2020-01-15 22:00:00 9.3 13 Sur 19 Sur 0 -- -- 89
2020-01-15 21:00:00 9.6 10 Sur 23 Sur 0 -- -- 88
2020-01-15 20:00:00 9.9 14 Sur 21 Sudoeste 0 -- -- 88
2020-01-15 19:00:00 10.1 12 Sur 22 Sudoeste 0 -- -- 85
2020-01-15 18:00:00 10.9 17 Sudoeste 34 Sudoeste 0 -- -- 82
2020-01-15 17:00:00 11.5 21 Sudoeste 34 Sudoeste 0 -- -- 78
2020-01-15 16:00:00 11.1 16 Sudoeste 37 Sudoeste 0 -- -- 80
2020-01-15 15:00:00 11.2 21 Sudoeste 35 Sudoeste 0 -- -- 79
2020-01-15 14:00:00 10.5 22 Sudoeste 40 Sudoeste 0 -- -- 81
2020-01-15 13:00:00 9.9 21 Sudoeste 31 Sudoeste 0 -- -- 80
2020-01-15 12:00:00 8.3 23 Sudoeste 38 Sudoeste 0.2 -- -- 87
2020-01-15 11:00:00 6.9 27 Sudoeste 50 Oeste 1.4 -- -- 88
2020-01-15 10:00:00 7.4 29 Oeste 53 Sudoeste 0.4 -- -- 88
2020-01-15 09:00:00 8.1 31 Sudoeste 55 Sur 0.2 -- -- 87
2020-01-15 08:00:00 8.3 30 Sudoeste 55 Sudoeste 0 -- -- 85
2020-01-15 07:00:00 8 34 Sudoeste 54 Sudoeste 0 -- -- 87
2020-01-15 06:00:00 8.2 28 Sudoeste 52 Sudoeste 0 -- -- 84
2020-01-15 05:00:00 8.2 29 Sudoeste 54 Sudoeste 0 -- -- 83
2020-01-15 04:00:00 8.1 35 Sudoeste 52 Sudoeste 0 -- -- 83
2020-01-15 03:00:00 8.1 32 Sudoeste 50 Sudoeste 0 -- -- 84
2020-01-15 02:00:00 8.1 28 Sudoeste 47 Sudoeste 0 -- -- 85
2020-01-15 01:00:00 7.7 24 Sudoeste 44 Sudoeste 0 -- -- 87
2020-01-15 00:00:00 7.4 21 Sudoeste 35 Sudoeste 0 -- -- 88
2020-01-14 23:00:00 6.8 17 Sur 26 Sudoeste 0 -- -- 90
2020-01-14 22:00:00 6.5 13 Sudoeste 24 Sur 0.2 -- -- 90
2020-01-14 21:00:00 6.6 16 Sudoeste 37 Sudoeste 0 -- -- 89
2020-01-14 20:00:00 6.8 26 Sudoeste 37 Sudoeste 0 -- -- 85
2020-01-14 19:00:00 7.1 13 Sudoeste 37 Sudoeste 0 -- -- 83
2020-01-14 18:00:00 7.2 26 Sudoeste 39 Sudoeste 0 -- -- 81
2020-01-14 17:00:00 7.9 30 Sudoeste 40 Sudoeste 0 -- -- 80
2020-01-14 16:00:00 8.7 21 Sudoeste 36 Sudoeste 0 -- -- 74
2020-01-14 15:00:00 9.4 21 Sudoeste 31 Sudoeste 0 -- -- 72
2020-01-14 14:00:00 8.1 20 Sudoeste 36 Sudoeste 0 -- -- 77
2020-01-14 13:00:00 7.3 18 Sudoeste 34 Sudoeste 0 -- -- 81
2020-01-14 12:00:00 6.8 21 Sudoeste 32 Sur 0 -- -- 83
2020-01-14 11:00:00 5.8 14 Sudoeste 26 Sudoeste 0 -- -- 83
2020-01-14 10:00:00 4.5 9 Sudoeste 15 Sur 0 -- -- 88
2020-01-14 09:00:00 3.1 2 Este 10 Sudeste 0 -- -- 91
2020-01-14 08:00:00 3.8 4 Sur 13 Sudoeste 0 -- -- 87
2020-01-14 07:00:00 4.6 2 Sudoeste 15 Sudoeste 0 -- -- 85
2020-01-14 06:00:00 4.5 2 Sudoeste 22 Sur 0 -- -- 85
2020-01-14 05:00:00 4.6 13 Sudoeste 28 Sudoeste 0 -- -- 85
2020-01-14 04:00:00 4.4 11 Sudoeste 28 Sudoeste 0 -- -- 86
2020-01-14 03:00:00 4.5 20 Sudoeste 30 Sudoeste 0 -- -- 86
2020-01-14 02:00:00 3.9 13 Sudoeste 24 Sudoeste 0 -- -- 89
2020-01-14 01:00:00 3.5 6 Sudoeste 23 Sudoeste 0 -- -- 89
2020-01-14 00:00:00 2.9 14 Sudoeste 21 Sudoeste 0 -- -- 92
2020-01-13 23:00:00 1.4 0 Calma 9 Sudeste 0 -- -- 97
2020-01-13 22:00:00 -0.9 2 Sur 8 Sudoeste 0 -- -- 97
2020-01-13 21:00:00 -1.6 2 Noroeste 7 Sudeste 0 -- -- 96
2020-01-13 20:00:00 -1.1 3 Nordeste 6 Oeste 0 -- -- 93
2020-01-13 19:00:00 1.1 4 Este 10 Sudeste 0 -- -- 89
2020-01-13 18:00:00 5.1 9 Sudoeste 32 Sudoeste 0 -- -- 78
2020-01-13 17:00:00 6.5 24 Sudoeste 37 Sudoeste 0 -- -- 72
2020-01-13 16:00:00 6 16 Sudoeste 25 Sudoeste 0 -- -- 99
2020-01-13 15:00:00 3 8 Sudoeste 22 Sudoeste 0 -- -- 99
2020-01-13 14:00:00 1.2 10 Oeste 15 Sudoeste 0 -- -- 99
2020-01-13 13:00:00 -1.2 0 Calma -- -- 0.2 -- -- 99
2020-01-13 12:00:00 -2.3 0 Calma -- -- 0 -- -- 98
2020-01-13 11:00:00 -3 0 Calma -- -- 0 -- -- 98
2020-01-13 10:00:00 -3.4 0 Calma -- -- 0 -- -- 98
2020-01-13 09:00:00 -3.5 0 Calma -- -- 0 -- -- 98
2020-01-13 08:00:00 -3.7 0 Calma -- -- 0 -- -- 98
2020-01-13 07:00:00 -3.5 0 Calma -- -- 0 -- -- 97
2020-01-13 06:00:00 -3.4 0 Calma -- -- 0 -- -- 97
2020-01-13 05:00:00 -3.5 0 Calma -- -- 0 -- -- 98
2020-01-13 04:00:00 -3.3 0 Calma -- -- 0 -- -- 98
2020-01-13 03:00:00 -3.2 0 Calma -- -- 0 -- -- 98
2020-01-13 02:00:00 -3.2 0 Calma -- -- 0 -- -- 98
2020-01-13 01:00:00 -2.7 0 Calma -- -- 0 -- -- 98
2020-01-13 00:00:00 -2.4 0 Calma -- -- 0 -- -- 99
2020-01-12 23:00:00 -2 0 Calma -- -- 0 -- -- 99
2020-01-12 22:00:00 -1.6 0 Calma -- -- 0 -- -- 99
2020-01-12 21:00:00 -1.6 0 Calma -- -- 0 -- -- 99
2020-01-12 20:00:00 -1.5 0 Calma -- -- 0 -- -- 99
2020-01-12 19:00:00 -1.2 0 Calma -- -- 0 -- -- 99
2020-01-12 18:00:00 -0.9 0 Calma -- -- 0 -- -- 99
2020-01-12 17:00:00 -0.9 0 Calma -- -- 0 -- -- 99
2020-01-12 16:00:00 -0.9 0 Calma -- -- 0 -- -- 98
2020-01-12 15:00:00 -1.1 0 Calma -- -- 0 -- -- 98
2020-01-12 14:00:00 -1.4 0 Calma -- -- 0 -- -- 98
2020-01-12 13:00:00 -1.8 0 Calma -- -- 0 -- -- 98
2020-01-12 12:00:00 -2.3 0 Calma -- -- 0 -- -- 98
2020-01-12 11:00:00 -3.2 0 Calma -- -- 0 -- -- 97
2020-01-12 10:00:00 -3.5 0 Calma -- -- 0 -- -- 97
2020-01-12 09:00:00 -3.5 0 Calma -- -- 0 -- -- 97
2020-01-12 08:00:00 -3.4 0 Calma -- -- 0 -- -- 97
2020-01-12 07:00:00 -3.9 0 Calma -- -- 0 -- -- 97
2020-01-12 06:00:00 -3.6 0 Calma -- -- 0 -- -- 97
2020-01-12 05:00:00 -3.5 0 Calma -- -- 0 -- -- 97
2020-01-12 04:00:00 -3.1 0 Calma -- -- 0 -- -- 98
2020-01-12 03:00:00 -3.3 0 Calma -- -- 0 -- -- 97
2020-01-12 02:00:00 -2.8 0 Calma -- -- 0 -- -- 97
2020-01-12 01:00:00 -2.4 0 Calma 5 Oeste 0 -- -- 97
2020-01-12 00:00:00 -1.8 3 Oeste 8 Noroeste 0 -- -- 96
2020-01-11 23:00:00 -1.9 4 Noroeste 6 Noroeste 0 -- -- 96
2020-01-11 22:00:00 -1.4 3 Norte 5 Norte 0 -- -- 95
2020-01-11 21:00:00 -0.2 0 Calma 6 Norte 0 -- -- 93
2020-01-11 20:00:00 0.8 3 Norte 10 Sur 0 -- -- 90
2020-01-11 19:00:00 3.5 6 Sur 14 Sur 0 -- -- 87
2020-01-11 18:00:00 5.3 5 Sur 10 Este 0 -- -- 75
2020-01-11 17:00:00 7.2 9 Sudeste 12 Este 0 -- -- 72
2020-01-11 16:00:00 7.5 8 Sudeste 12 Este 0 -- -- 68
2020-01-11 15:00:00 7.8 5 Este 12 Este 0 -- -- 67
2020-01-11 14:00:00 7.5 2 Este 9 Este 0 -- -- 70
2020-01-11 13:00:00 6 2 Norte 7 Este 0 -- -- 76
2020-01-11 12:00:00 5.2 0 Calma 4 Este 0 -- -- 80
2020-01-11 11:00:00 2.5 0 Calma 2 Sudeste 0.2 -- -- 89
2020-01-11 10:00:00 -0.8 0 Calma 5 Noroeste 0 -- -- 95
2020-01-11 09:00:00 -2.5 2 Oeste 11 Noroeste 0 -- -- 95
2020-01-11 08:00:00 -1.9 11 Noroeste 14 Noroeste 0 -- -- 95
2020-01-11 07:00:00 -1.9 10 Oeste 12 Noroeste 0 -- -- 95
2020-01-11 06:00:00 -1.9 11 Noroeste 14 Noroeste 0 -- -- 95
2020-01-11 05:00:00 -1.7 11 Oeste 14 Oeste 0 -- -- 95
2020-01-11 04:00:00 -1.6 10 Noroeste 13 Noroeste 0 -- -- 95
2020-01-11 03:00:00 -1.6 9 Noroeste 11 Noroeste 0 -- -- 95
2020-01-11 02:00:00 -1.4 6 Oeste 8 Oeste 0 -- -- 95
2020-01-11 01:00:00 -1.1 6 Oeste 9 Oeste 0 -- -- 95
2020-01-11 00:00:00 -0.9 2 Noroeste 10 Oeste 0 -- -- 94
2020-01-10 23:00:00 -0.5 5 Oeste 13 Oeste 0 -- -- 94
2020-01-10 22:00:00 -0.5 7 Noroeste 12 Oeste 0 -- -- 94
2020-01-10 21:00:00 0.1 8 Noroeste 10 Oeste 0 -- -- 93
2020-01-10 20:00:00 0.6 4 Oeste 5 Oeste 0 -- -- 91
2020-01-10 19:00:00 2.2 4 Sudoeste 7 Nordeste 0 -- -- 84
2020-01-10 18:00:00 6.9 8 Nordeste 17 Nordeste 0 -- -- 65
2020-01-10 17:00:00 8.9 11 Nordeste 22 Nordeste 0 -- -- 57
2020-01-10 16:00:00 9.4 13 Nordeste 23 Nordeste 0 -- -- 54
2020-01-10 15:00:00 9.6 8 Nordeste 18 Norte 0 -- -- 53
2020-01-10 14:00:00 8.3 11 Nordeste 21 Nordeste 0 -- -- 59
2020-01-10 13:00:00 8.4 10 Nordeste 21 Norte 0 -- -- 57
2020-01-10 12:00:00 7.3 16 Norte 22 Norte 0 -- -- 61
2020-01-10 11:00:00 5 8 Noroeste 13 Oeste 0 -- -- 74
2020-01-10 10:00:00 1.1 7 Noroeste 14 Noroeste 0 -- -- 89
2020-01-10 09:00:00 -0.9 13 Oeste 14 Oeste 0 -- -- 92
2020-01-10 08:00:00 -0.7 9 Oeste 16 Oeste 0 -- -- 90
2020-01-10 07:00:00 -0.4 4 Noroeste 14 Oeste 0 -- -- 92
2020-01-10 06:00:00 0.1 10 Oeste 15 Noroeste 0 -- -- 89
2020-01-10 05:00:00 -1.1 8 Oeste 13 Oeste 0 -- -- 91
2020-01-10 04:00:00 -0.7 6 Noroeste 13 Oeste 0 -- -- 93
2020-01-10 03:00:00 -0.7 3 Noroeste 7 Oeste 0 -- -- 92
2020-01-10 02:00:00 -0.8 4 Noroeste 9 Oeste 0 -- -- 90
2020-01-10 01:00:00 0.2 5 Oeste 10 Noroeste 0 -- -- 90
2020-01-10 00:00:00 1.7 4 Noroeste 13 Noroeste 0 -- -- 87
2020-01-09 23:00:00 4 10 Noroeste 15 Noroeste 0 -- -- 85
2020-01-09 22:00:00 4.4 9 Noroeste 25 Oeste 0 -- -- 89
2020-01-09 21:00:00 5.9 15 Sudoeste 24 Oeste 0 -- -- 86
2020-01-09 20:00:00 6.2 15 Noroeste 26 Oeste 0 -- -- 86
2020-01-09 19:00:00 7.4 17 Oeste 25 Oeste 0 -- -- 88
2020-01-09 18:00:00 9.1 16 Sudoeste 32 Oeste 0 -- -- 88
2020-01-09 17:00:00 10 19 Oeste 32 Oeste 0 -- -- 89
2020-01-09 16:00:00 9.9 17 Sudoeste 30 Sudoeste 0 -- -- 91
2020-01-09 15:00:00 8.6 22 Sudoeste 37 Sudoeste 0 -- -- 93
2020-01-09 14:00:00 10.1 28 Sudoeste 43 Sudoeste 0 -- -- 87
2020-01-09 13:00:00 7.9 9 Sudoeste 30 Oeste 0 -- -- 96
2020-01-09 12:00:00 7.8 19 Oeste 24 Oeste 0 -- -- 99
2020-01-09 11:00:00 5.7 16 Oeste 23 Oeste 0 -- -- 100
2020-01-09 10:00:00 0.2 4 Este 9 Este 0 -- -- 99
2020-01-09 09:00:00 -0.3 2 Este 4 Sudeste 0 -- -- 99
2020-01-09 08:00:00 -1.1 0 Calma 4 Oeste 0 -- -- 99
2020-01-09 07:00:00 -1.8 2 Oeste 4 Sudeste 0 -- -- 98
2020-01-09 06:00:00 -1.8 3 Sur 5 Noroeste 0 -- -- 98
2020-01-09 05:00:00 -1.3 0 Calma 4 Oeste 0 -- -- 98
2020-01-09 04:00:00 -1.2 0 Calma 5 Oeste 0 -- -- 98
2020-01-09 03:00:00 -1.3 5 Este 8 Sudeste 0 -- -- 97
2020-01-09 02:00:00 -1 0 Calma 2 Nordeste 0 -- -- 97
2020-01-09 01:00:00 -0.8 0 Calma 2 Norte 0 -- -- 97
2020-01-09 00:00:00 -0.6 0 Calma 3 Oeste 0 -- -- 97
2020-01-08 23:00:00 -0.1 3 Oeste 6 Noroeste 0 -- -- 97
2020-01-08 22:00:00 0 3 Noroeste 5 Noroeste 0 -- -- 97
2020-01-08 21:00:00 0.8 3 Noroeste 6 Noroeste 0 -- -- 96
2020-01-08 20:00:00 1.3 2 Noroeste 4 Noroeste 0 -- -- 94
2020-01-08 19:00:00 2.8 0 Calma 5 Este 0 -- -- 92
2020-01-08 18:00:00 5.4 4 Este 9 Este 0 -- -- 85
2020-01-08 17:00:00 7.5 8 Este 10 Sudeste 0 -- -- 78
2020-01-08 16:00:00 8.1 0 Calma 6 Este 0 -- -- 77
2020-01-08 15:00:00 6.5 4 Sudeste 7 Sudeste 0 -- -- 83
2020-01-08 14:00:00 4 3 Sudeste 7 Este 0 -- -- 100
2020-01-08 13:00:00 1.8 0 Calma 5 Este 0 -- -- 100
2020-01-08 12:00:00 -0.4 0 Calma 6 Sudeste 0.2 -- -- 100
2020-01-08 11:00:00 -2.2 0 Calma -- -- 0 -- -- 100
2020-01-08 10:00:00 -2.8 0 Calma 3 Sudeste 0 -- -- 99
2020-01-08 09:00:00 -2.9 0 Calma -- -- 0 -- -- 99
2020-01-08 08:00:00 -2.9 0 Calma 5 Sudeste 0 -- -- 99
2020-01-08 07:00:00 -3.1 0 Calma -- -- 0 -- -- 99
2020-01-08 06:00:00 -2.8 0 Calma 6 Sudeste 0 -- -- 99
2020-01-08 05:00:00 -2.3 4 Sudeste 6 Sudeste 0 -- -- 99
2020-01-08 04:00:00 -1.9 4 Sudeste 8 Sudeste 0 -- -- 99
2020-01-08 03:00:00 -1.8 0 Calma 3 Sudeste 0 -- -- 99
2020-01-08 02:00:00 -2 0 Calma 3 Sudeste 0 -- -- 99
2020-01-08 01:00:00 -2.2 0 Calma 5 Sudeste 0 -- -- 99
2020-01-08 00:00:00 -1.6 0 Calma 5 Sudeste 0 -- -- 99
2020-01-07 23:00:00 -1.3 0 Calma 3 Sudeste 0 -- -- 99
2020-01-07 22:00:00 -1.3 0 Calma 3 Sudeste 0 -- -- 99
2020-01-07 21:00:00 -0.9 2 Sudeste 4 Sudeste 0 -- -- 99
2020-01-07 20:00:00 -0.7 0 Calma 8 Sudeste 0 -- -- 99
2020-01-07 19:00:00 -0.8 7 Sudeste 9 Sudeste 0 -- -- 99
2020-01-07 18:00:00 0.2 4 Sudeste 4 Sudeste 0 -- -- 99
2020-01-07 17:00:00 0.9 0 Calma 6 Sudeste 0 -- -- 99
2020-01-07 16:00:00 1 3 Sudeste 6 Sudeste 0 -- -- 100
2020-01-07 15:00:00 0 3 Este 6 Este 0 -- -- 100
2020-01-07 14:00:00 -0.5 0 Calma 5 Este 0 -- -- 100
2020-01-07 13:00:00 -1 0 Calma -- -- 0 -- -- 100
2020-01-07 12:00:00 -1.8 0 Calma -- -- 0 -- -- 99
2020-01-07 11:00:00 -1.9 0 Calma -- -- 0 -- -- 100
2020-01-07 10:00:00 -2.4 0 Calma -- -- 0 -- -- 100
2020-01-07 09:00:00 -2.2 0 Calma -- -- 0 -- -- 99
2020-01-07 08:00:00 -1.9 0 Calma -- -- 0 -- -- 100
2020-01-07 07:00:00 -2.1 0 Calma -- -- 0 -- -- 99
2020-01-07 06:00:00 -2 0 Calma -- -- 0 -- -- 99
2020-01-07 05:00:00 -1.7 0 Calma -- -- 0 -- -- 99
2020-01-07 04:00:00 -1.1 0 Calma -- -- 0 -- -- 100
2020-01-07 03:00:00 -1.3 0 Calma -- -- 0 -- -- 99
2020-01-07 02:00:00 -1.3 0 Calma -- -- 0 -- -- 100
2020-01-07 01:00:00 -1.1 0 Calma -- -- 0 -- -- 99
2020-01-07 00:00:00 -0.9 0 Calma -- -- 0 -- -- 99
2020-01-06 23:00:00 -0.5 0 Calma -- -- 0 -- -- 99
2020-01-06 22:00:00 -0.6 3 Nordeste 11 Sudeste 0 -- -- 99
2020-01-06 21:00:00 -0.3 5 Este 8 Este 0 -- -- 99
2020-01-06 20:00:00 -0.1 2 Nordeste 6 Nordeste 0 -- -- 99
2020-01-06 19:00:00 0.2 0 Calma 9 Nordeste 0 -- -- 99
2020-01-06 18:00:00 0.4 6 Nordeste 9 Este 0 -- -- 99
2020-01-06 17:00:00 0.4 4 Este 10 Este 0 -- -- 99
2020-01-06 16:00:00 0.4 5 Sudeste 9 Sudeste 0 -- -- 99
2020-01-06 15:00:00 0 3 Nordeste 6 Este 0 -- -- 99
2020-01-06 14:00:00 -0.4 2 Sur 4 Sudeste 0 -- -- 99
2020-01-06 13:00:00 -0.7 0 Calma -- -- 0 -- -- 99
2020-01-06 12:00:00 -1 0 Calma -- -- 0 -- -- 99
2020-01-06 11:00:00 -1.7 0 Calma -- -- 0 -- -- 99
2020-01-06 10:00:00 -2.3 0 Calma -- -- 0 -- -- 99